createdAt,value
2023-01-30T00:01:39.985Z,3.10
2023-01-30T00:04:07.572Z,3.31
2023-01-30T00:06:36.391Z,3.28
2023-01-30T00:09:03.863Z,3.45
2023-01-30T00:11:33.170Z,3.49
2023-01-30T00:14:01.386Z,3.30
2023-01-30T00:16:28.932Z,3.51
2023-01-30T00:18:56.442Z,3.56
2023-01-30T00:21:23.907Z,3.50
2023-01-30T00:23:52.735Z,3.47
2023-01-30T00:26:20.258Z,3.67
2023-01-30T00:28:47.792Z,3.39
2023-01-30T00:31:15.365Z,3.58
2023-01-30T00:33:42.877Z,3.68
2023-01-30T00:36:11.759Z,3.59
2023-01-30T00:38:39.264Z,3.68
2023-01-30T00:41:08.455Z,3.77
2023-01-30T00:43:54.090Z,3.82
2023-01-30T00:46:46.912Z,3.76
2023-01-30T00:49:14.585Z,3.64
2023-01-30T00:51:42.061Z,3.75
2023-01-30T00:54:09.600Z,3.85
2023-01-30T00:56:38.389Z,3.75
2023-01-30T00:59:05.887Z,3.51
2023-01-30T01:01:33.336Z,3.74
2023-01-30T01:04:00.816Z,3.64
2023-01-30T01:06:28.276Z,3.55
2023-01-30T01:08:55.797Z,3.72
2023-01-30T01:11:26.083Z,3.87
2023-01-30T01:13:56.565Z,3.90
2023-01-30T01:16:25.057Z,3.99
2023-01-30T01:18:52.580Z,3.93
2023-01-30T01:21:20.824Z,3.82
2023-01-30T01:23:52.062Z,3.83
2023-01-30T01:26:19.969Z,3.76
2023-01-30T01:28:47.698Z,3.92
2023-01-30T01:31:18.167Z,3.90
2023-01-30T01:33:45.864Z,3.86
2023-01-30T01:36:20.043Z,3.95
2023-01-30T01:38:57.073Z,3.81
2023-01-30T01:41:23.655Z,3.76
2023-01-30T01:44:06.580Z,3.88
2023-01-30T01:46:39.019Z,3.88
2023-01-30T01:49:13.717Z,3.81
2023-01-30T01:51:47.881Z,3.90
2023-01-30T01:54:19.667Z,3.91
2023-01-30T01:56:49.934Z,3.83
2023-01-30T01:59:23.606Z,3.94
2023-01-30T02:01:57.059Z,4.03
2023-01-30T02:04:41.218Z,4.01
2023-01-30T02:07:10.007Z,4.07
2023-01-30T02:09:37.783Z,3.98
2023-01-30T02:12:06.738Z,3.79
2023-01-30T02:14:35.399Z,3.84
2023-01-30T02:17:04.251Z,3.88
2023-01-30T02:19:44.554Z,4.04
2023-01-30T02:22:32.800Z,4.04
2023-01-30T02:25:22.489Z,4.03
2023-01-30T02:28:26.498Z,4.06
2023-01-30T02:31:13.393Z,4.09
2023-01-30T02:33:49.798Z,3.96
2023-01-30T02:36:25.481Z,3.97
2023-01-30T02:39:01.091Z,4.07
2023-01-30T02:41:38.080Z,4.10
2023-01-30T02:44:09.769Z,4.11
2023-01-30T02:46:47.488Z,4.01
2023-01-30T02:49:22.100Z,3.94
2023-01-30T02:51:51.404Z,4.08
2023-01-30T02:54:19.119Z,4.11
2023-01-30T02:56:49.855Z,3.98
2023-01-30T02:59:22.907Z,3.91
2023-01-30T03:02:08.382Z,4.16
2023-01-30T03:04:53.578Z,4.19
2023-01-30T03:07:36.011Z,4.26
2023-01-30T03:10:10.607Z,4.25
2023-01-30T03:12:44.887Z,4.23
2023-01-30T03:15:17.477Z,4.06
2023-01-30T03:17:48.951Z,4.22
2023-01-30T03:20:20.044Z,4.18
2023-01-30T03:22:48.241Z,4.31
2023-01-30T03:25:20.825Z,4.38
2023-01-30T03:27:51.295Z,4.45
2023-01-30T03:30:19.521Z,4.41
2023-01-30T03:32:48.366Z,4.44
2023-01-30T03:35:17.774Z,4.40
2023-01-30T03:37:46.056Z,4.52
2023-01-30T03:40:15.564Z,4.41
2023-01-30T03:42:43.098Z,4.25
2023-01-30T03:45:11.850Z,4.31
2023-01-30T03:47:39.377Z,4.40
2023-01-30T03:50:09.465Z,4.41
2023-01-30T03:52:37.170Z,4.44
2023-01-30T03:55:05.719Z,4.41
2023-01-30T03:57:33.207Z,4.41
2023-01-30T04:00:00.771Z,4.47
2023-01-30T04:02:28.323Z,4.52
2023-01-30T04:04:55.878Z,4.69
2023-01-30T04:07:24.771Z,4.54
2023-01-30T04:09:52.251Z,4.37
2023-01-30T04:12:19.735Z,4.42
2023-01-30T04:14:47.258Z,4.42
2023-01-30T04:17:14.726Z,4.48
2023-01-30T04:19:42.224Z,4.38
2023-01-30T04:22:09.688Z,4.65
2023-01-30T04:24:38.499Z,4.56
2023-01-30T04:27:05.952Z,4.52
2023-01-30T04:29:33.460Z,4.59
2023-01-30T04:32:00.933Z,4.75
2023-01-30T04:34:28.433Z,4.65
2023-01-30T04:36:55.896Z,4.62
2023-01-30T04:39:23.371Z,4.74
2023-01-30T04:41:52.240Z,4.71
2023-01-30T04:44:19.764Z,4.79
2023-01-30T04:46:47.286Z,4.59
2023-01-30T04:49:14.755Z,4.72
2023-01-30T04:51:42.243Z,4.86
2023-01-30T04:54:09.735Z,4.98
2023-01-30T04:56:37.220Z,4.67
2023-01-30T04:59:06.054Z,4.87
2023-01-30T05:01:35.741Z,4.67
2023-01-30T05:04:04.679Z,4.70
2023-01-30T05:06:33.314Z,4.69
2023-01-30T05:09:01.223Z,4.75
2023-01-30T05:11:30.796Z,4.63
2023-01-30T05:13:58.283Z,4.57
2023-01-30T05:16:27.796Z,4.67
2023-01-30T05:18:55.494Z,4.77
2023-01-30T05:21:25.799Z,4.90
2023-01-30T05:23:53.885Z,4.89
2023-01-30T05:26:22.466Z,4.86
2023-01-30T05:28:52.880Z,4.88
2023-01-30T05:31:20.506Z,4.95
2023-01-30T05:33:52.171Z,4.91
2023-01-30T05:36:22.046Z,5.03
2023-01-30T05:38:49.800Z,4.89
2023-01-30T05:41:17.993Z,5.01
2023-01-30T05:43:49.464Z,5.07
2023-01-30T05:46:17.014Z,4.96
2023-01-30T05:48:44.593Z,4.94
2023-01-30T05:51:21.695Z,5.01
2023-01-30T05:53:49.639Z,4.98
2023-01-30T05:56:17.627Z,5.11
2023-01-30T05:58:45.181Z,4.92
2023-01-30T06:01:13.944Z,5.05
2023-01-30T06:03:41.495Z,4.99
2023-01-30T06:06:09.338Z,5.05
2023-01-30T06:08:38.343Z,5.13
2023-01-30T06:11:08.154Z,5.21
2023-01-30T06:13:36.078Z,5.14
2023-01-30T06:16:04.167Z,5.11
2023-01-30T06:18:31.663Z,5.22
2023-01-30T06:20:59.341Z,5.24
2023-01-30T06:23:27.194Z,5.13
2023-01-30T06:25:56.553Z,5.13
2023-01-30T06:28:25.541Z,5.08
2023-01-30T06:30:53.334Z,5.04
2023-01-30T06:33:20.943Z,5.08
2023-01-30T06:35:50.587Z,5.02
2023-01-30T06:38:18.903Z,5.06
2023-01-30T06:40:47.677Z,5.20
2023-01-30T06:43:16.896Z,5.36
2023-01-30T06:45:44.493Z,5.36
2023-01-30T06:48:12.019Z,5.45
2023-01-30T06:50:39.556Z,5.41
2023-01-30T06:53:08.690Z,5.46
2023-01-30T06:55:38.048Z,5.40
2023-01-30T06:58:07.659Z,5.39
2023-01-30T07:00:40.150Z,5.24
2023-01-30T07:03:11.052Z,5.32
2023-01-30T07:05:38.943Z,5.31
2023-01-30T07:08:06.558Z,5.40
2023-01-30T07:10:35.743Z,5.37
2023-01-30T07:13:03.344Z,5.41
2023-01-30T07:15:31.220Z,5.44
2023-01-30T07:18:00.662Z,5.54
2023-01-30T07:20:29.946Z,5.59
2023-01-30T07:22:57.478Z,5.64
2023-01-30T07:25:26.983Z,5.56
2023-01-30T07:27:56.573Z,5.62
2023-01-30T07:30:24.223Z,5.60
2023-01-30T07:32:52.309Z,5.54
2023-01-30T07:35:21.540Z,5.54
2023-01-30T07:37:49.937Z,5.51
2023-01-30T07:40:18.006Z,5.58
2023-01-30T07:42:45.619Z,5.62
2023-01-30T07:45:13.093Z,5.55
2023-01-30T07:47:40.585Z,5.62
2023-01-30T07:50:09.297Z,5.64
2023-01-30T07:52:38.122Z,5.63
2023-01-30T07:55:06.266Z,5.75
2023-01-30T07:57:33.763Z,5.70
2023-01-30T08:00:01.360Z,5.75
2023-01-30T08:02:29.435Z,5.76
2023-01-30T08:04:57.036Z,5.84
2023-01-30T08:07:24.853Z,5.89
2023-01-30T08:09:53.685Z,5.85
2023-01-30T08:12:21.231Z,5.81
2023-01-30T08:14:48.689Z,5.62
2023-01-30T08:17:16.155Z,5.82
2023-01-30T08:19:43.625Z,5.74
2023-01-30T08:22:11.096Z,5.82
2023-01-30T08:24:38.575Z,5.73
2023-01-30T08:27:07.409Z,5.85
2023-01-30T08:29:34.926Z,5.95
2023-01-30T08:32:02.620Z,5.99
2023-01-30T08:34:30.099Z,5.94
2023-01-30T08:36:57.569Z,5.97
2023-01-30T08:39:25.045Z,6.02
2023-01-30T08:41:52.521Z,6.13
2023-01-30T08:44:21.438Z,6.10
2023-01-30T08:46:48.965Z,6.08
2023-01-30T08:49:16.678Z,5.96
2023-01-30T08:51:44.161Z,6.02
2023-01-30T08:54:11.639Z,5.86
2023-01-30T08:56:39.102Z,5.97
2023-01-30T08:59:07.694Z,6.11
2023-01-30T09:01:37.969Z,5.99
2023-01-30T09:04:05.521Z,6.04
2023-01-30T09:06:33.405Z,6.11
2023-01-30T09:09:01.356Z,6.05
2023-01-30T09:11:28.906Z,5.94
2023-01-30T09:13:56.534Z,6.09
2023-01-30T09:16:25.344Z,6.03
2023-01-30T09:18:54.168Z,5.99
2023-01-30T09:21:22.082Z,6.03
2023-01-30T09:23:49.549Z,6.02
2023-01-30T09:26:17.290Z,6.04
2023-01-30T09:28:44.778Z,5.95
2023-01-30T09:31:12.385Z,5.97
2023-01-30T09:33:39.958Z,6.06
2023-01-30T09:36:10.149Z,6.06
2023-01-30T09:38:37.597Z,5.84
2023-01-30T09:41:23.194Z,5.93
2023-01-30T09:44:07.451Z,5.95
2023-01-30T09:46:46.152Z,5.90
2023-01-30T09:49:29.257Z,5.83
2023-01-30T09:52:09.677Z,5.87
2023-01-30T09:54:40.443Z,6.01
2023-01-30T09:57:22.186Z,6.07
2023-01-30T10:00:01.800Z,6.14
2023-01-30T10:02:52.832Z,6.04
2023-01-30T10:05:20.803Z,5.99
2023-01-30T10:08:09.325Z,6.09
2023-01-30T10:10:51.001Z,6.12
2023-01-30T10:13:35.866Z,6.07
2023-01-30T10:16:14.066Z,6.11
2023-01-30T10:19:18.149Z,6.15
2023-01-30T10:21:58.354Z,6.13
2023-01-30T10:24:43.321Z,6.14
2023-01-30T10:27:14.697Z,6.18
2023-01-30T10:29:47.355Z,6.26
2023-01-30T10:32:19.874Z,6.40
2023-01-30T10:34:49.904Z,6.43
2023-01-30T10:37:25.113Z,6.47
2023-01-30T10:40:02.466Z,6.55
2023-01-30T10:42:35.850Z,6.35
2023-01-30T10:45:11.698Z,6.45
2023-01-30T10:47:51.058Z,6.43
2023-01-30T10:50:22.331Z,6.35
2023-01-30T10:52:58.055Z,6.46
2023-01-30T10:55:37.594Z,6.34
2023-01-30T10:58:16.350Z,6.24
2023-01-30T11:00:51.272Z,6.31
2023-01-30T11:03:27.386Z,6.25
2023-01-30T11:05:59.546Z,6.16
2023-01-30T11:08:29.045Z,6.24
2023-01-30T11:10:59.084Z,6.20
2023-01-30T11:13:31.114Z,6.35
2023-01-30T11:16:03.298Z,6.28
2023-01-30T11:19:17.773Z,6.31
2023-01-30T11:21:27.056Z,6.43
2023-01-30T11:23:57.026Z,6.36
2023-01-30T11:26:45.156Z,6.27
2023-01-30T11:29:26.718Z,6.41
2023-01-30T11:31:54.875Z,6.48
2023-01-30T11:34:25.038Z,6.61
2023-01-30T11:36:52.610Z,6.56
2023-01-30T11:39:23.259Z,6.60
2023-01-30T11:42:04.819Z,6.65
2023-01-30T11:44:34.642Z,6.60
2023-01-30T11:47:04.519Z,6.48
2023-01-30T11:49:47.157Z,6.78
2023-01-30T11:52:29.221Z,6.77
2023-01-30T11:55:05.285Z,6.61
2023-01-30T11:57:41.234Z,6.62
2023-01-30T12:00:18.494Z,6.63
2023-01-30T12:02:47.930Z,6.78
2023-01-30T12:05:24.992Z,6.67
2023-01-30T12:07:53.936Z,6.68
2023-01-30T12:10:30.714Z,6.62
2023-01-30T12:13:02.808Z,6.49
2023-01-30T12:15:33.902Z,6.60
2023-01-30T12:18:08.165Z,6.68
2023-01-30T12:20:48.027Z,6.58
2023-01-30T12:23:19.935Z,6.67
2023-01-30T12:25:57.508Z,6.69
2023-01-30T12:28:34.557Z,6.64
2023-01-30T12:31:06.902Z,6.62
2023-01-30T12:33:36.058Z,6.67
2023-01-30T12:36:15.446Z,6.79
2023-01-30T12:38:57.895Z,6.83
2023-01-30T12:41:38.656Z,6.94
2023-01-30T12:44:22.257Z,6.91
2023-01-30T12:47:05.711Z,6.96
2023-01-30T12:49:49.581Z,6.81
2023-01-30T12:52:42.797Z,6.83
2023-01-30T12:55:23.508Z,6.85
2023-01-30T12:57:58.237Z,6.73
2023-01-30T13:00:37.897Z,6.81
2023-01-30T13:03:20.398Z,6.75
2023-01-30T13:05:55.176Z,6.79
2023-01-30T13:08:35.412Z,6.85
2023-01-30T13:11:14.949Z,6.88
2023-01-30T13:13:50.837Z,6.88
2023-01-30T13:16:29.125Z,6.93
2023-01-30T13:19:02.683Z,7.07
2023-01-30T13:21:35.625Z,7.02
2023-01-30T13:24:15.344Z,7.13
2023-01-30T13:26:45.115Z,7.21
2023-01-30T13:29:17.188Z,7.31
2023-01-30T13:31:53.367Z,7.35
2023-01-30T13:34:29.262Z,7.26
2023-01-30T13:37:04.391Z,7.29
2023-01-30T13:39:42.075Z,7.25
2023-01-30T13:42:20.844Z,7.23
2023-01-30T13:44:51.255Z,7.22
2023-01-30T13:47:33.932Z,7.36
2023-01-30T13:50:13.860Z,7.16
2023-01-30T13:52:46.299Z,7.21
2023-01-30T13:55:26.881Z,7.12
2023-01-30T13:58:00.471Z,7.19
2023-01-30T14:00:32.659Z,7.27
2023-01-30T14:03:30.298Z,7.23
2023-01-30T14:06:11.708Z,7.23
2023-01-30T14:08:49.573Z,7.25
2023-01-30T14:11:33.904Z,7.38
2023-01-30T14:14:05.577Z,7.37
2023-01-30T14:16:44.292Z,7.24
2023-01-30T14:19:35.532Z,7.22
2023-01-30T14:22:18.178Z,7.18
2023-01-30T14:24:45.720Z,7.19
2023-01-30T14:27:27.225Z,7.14
2023-01-30T14:29:56.045Z,7.23
2023-01-30T14:32:54.996Z,7.23
2023-01-30T14:35:28.504Z,7.13
2023-01-30T14:38:11.027Z,7.06
2023-01-30T14:40:40.923Z,7.05
2023-01-30T14:43:52.296Z,7.12
2023-01-30T14:46:54.725Z,7.13
2023-01-30T14:49:30.302Z,7.03
2023-01-30T14:51:59.635Z,7.05
2023-01-30T14:54:41.889Z,6.98
2023-01-30T14:57:20.168Z,7.04
2023-01-30T15:00:11.489Z,7.16
2023-01-30T15:02:44.081Z,7.19
2023-01-30T15:05:16.173Z,7.14
2023-01-30T15:07:48.128Z,7.33
2023-01-30T15:10:30.005Z,7.38
2023-01-30T15:13:24.429Z,7.29
2023-01-30T15:16:05.211Z,7.18
2023-01-30T15:18:52.405Z,7.19
2023-01-30T15:21:40.342Z,7.30
2023-01-30T15:25:01.459Z,7.08
2023-01-30T15:27:35.676Z,7.01
2023-01-30T15:30:17.248Z,7.08
2023-01-30T15:32:45.962Z,7.30
2023-01-30T15:35:24.339Z,7.22
2023-01-30T15:37:53.985Z,7.36
2023-01-30T15:40:25.649Z,7.29
2023-01-30T15:43:03.477Z,7.31
2023-01-30T15:45:41.015Z,7.21
2023-01-30T15:48:22.965Z,7.23
2023-01-30T15:50:54.645Z,7.12
2023-01-30T15:53:28.260Z,7.08
2023-01-30T15:55:57.826Z,7.11
2023-01-30T15:58:26.026Z,7.04
2023-01-30T16:00:57.189Z,6.99
2023-01-30T16:03:27.945Z,7.06
2023-01-30T16:05:57.562Z,7.07
2023-01-30T16:08:27.746Z,6.95
2023-01-30T16:10:57.310Z,6.96
2023-01-30T16:13:25.366Z,6.81
2023-01-30T16:15:57.719Z,6.99
2023-01-30T16:18:32.226Z,6.97
2023-01-30T16:21:03.163Z,6.94
2023-01-30T16:23:34.775Z,6.92
2023-01-30T16:26:04.680Z,7.01
2023-01-30T16:28:33.223Z,6.94
2023-01-30T16:31:02.467Z,6.91
2023-01-30T16:33:36.019Z,6.89
2023-01-30T16:36:04.897Z,6.99
2023-01-30T16:38:38.302Z,6.93
2023-01-30T16:41:07.290Z,6.98
2023-01-30T16:43:35.373Z,7.02
2023-01-30T16:46:44.485Z,6.94
2023-01-30T16:49:18.574Z,7.15
2023-01-30T16:51:47.024Z,7.12
2023-01-30T16:54:20.530Z,6.94
2023-01-30T16:56:53.701Z,7.06
2023-01-30T16:59:28.521Z,7.01
2023-01-30T17:01:57.065Z,6.91
2023-01-30T17:04:28.575Z,6.90
2023-01-30T17:06:59.974Z,6.91
2023-01-30T17:09:45.774Z,6.88
2023-01-30T17:12:37.637Z,6.87
2023-01-30T17:15:28.182Z,6.98
2023-01-30T17:17:55.703Z,6.85
2023-01-30T17:20:23.710Z,6.80
2023-01-30T17:22:53.759Z,6.82
2023-01-30T17:25:30.049Z,6.93
2023-01-30T17:27:58.249Z,7.01
2023-01-30T17:30:27.122Z,7.06
2023-01-30T17:32:54.613Z,7.10
2023-01-30T17:35:22.338Z,7.19
2023-01-30T17:37:59.510Z,7.14
2023-01-30T17:40:35.062Z,7.12
2023-01-30T17:43:02.777Z,7.06
2023-01-30T17:45:31.702Z,7.12
2023-01-30T17:47:59.167Z,6.91
2023-01-30T17:50:28.296Z,7.07
2023-01-30T17:52:55.804Z,7.02
2023-01-30T17:55:23.626Z,7.04
2023-01-30T17:57:51.186Z,6.87
2023-01-30T18:00:21.433Z,7.03
2023-01-30T18:02:50.637Z,7.03
2023-01-30T18:05:18.137Z,6.92
2023-01-30T18:07:45.722Z,6.99
2023-01-30T18:10:17.203Z,6.91
2023-01-30T18:12:45.317Z,6.87
2023-01-30T18:15:14.776Z,6.80
2023-01-30T18:17:47.121Z,6.81
2023-01-30T18:20:18.964Z,6.71
2023-01-30T18:22:46.808Z,6.69
2023-01-30T18:25:14.447Z,6.72
2023-01-30T18:27:43.894Z,6.44
2023-01-30T18:30:14.086Z,6.50
2023-01-30T18:32:52.056Z,6.48
2023-01-30T18:35:22.686Z,6.51
2023-01-30T18:37:50.847Z,6.57
2023-01-30T18:40:19.590Z,6.56
2023-01-30T18:42:47.327Z,6.58
2023-01-30T18:45:14.988Z,6.54
2023-01-30T18:47:42.518Z,6.58
2023-01-30T18:50:10.896Z,6.69
2023-01-30T18:52:39.733Z,6.71
2023-01-30T18:55:07.726Z,6.63
2023-01-30T18:57:35.203Z,6.72
2023-01-30T19:00:02.978Z,6.61
2023-01-30T19:02:30.462Z,6.59
2023-01-30T19:04:57.981Z,6.49
2023-01-30T19:07:25.550Z,6.55
2023-01-30T19:09:54.378Z,6.55
2023-01-30T19:12:40.812Z,6.58
2023-01-30T19:15:10.372Z,6.65
2023-01-30T19:17:37.839Z,6.58
2023-01-30T19:20:10.700Z,6.57
2023-01-30T19:22:38.539Z,6.47
2023-01-30T19:25:08.741Z,6.41
2023-01-30T19:27:37.944Z,6.44
2023-01-30T19:30:06.701Z,6.52
2023-01-30T19:32:34.997Z,6.57
2023-01-30T19:35:02.792Z,6.61
2023-01-30T19:37:30.474Z,6.61
2023-01-30T19:39:57.988Z,6.61
2023-01-30T19:42:26.813Z,6.56
2023-01-30T19:44:54.323Z,6.49
2023-01-30T19:47:23.275Z,6.49
2023-01-30T19:49:51.048Z,6.63
2023-01-30T19:52:18.556Z,6.62
2023-01-30T19:54:47.586Z,6.43
2023-01-30T19:57:15.097Z,6.31
2023-01-30T19:59:44.793Z,6.25
2023-01-30T20:02:13.635Z,6.39
2023-01-30T20:04:41.182Z,6.35
2023-01-30T20:07:08.766Z,6.27
2023-01-30T20:09:36.268Z,6.22
2023-01-30T20:12:03.952Z,6.24
2023-01-30T20:14:31.440Z,6.14
2023-01-30T20:17:00.407Z,6.18
2023-01-30T20:19:28.062Z,6.15
2023-01-30T20:21:55.849Z,6.02
2023-01-30T20:24:23.320Z,6.17
2023-01-30T20:26:50.906Z,5.74
2023-01-30T20:29:18.457Z,5.96
2023-01-30T20:31:46.606Z,5.95
2023-01-30T20:34:16.305Z,5.90
2023-01-30T20:36:43.854Z,5.87
2023-01-30T20:39:11.723Z,5.79
2023-01-30T20:41:39.740Z,5.85
2023-01-30T20:44:09.566Z,5.82
2023-01-30T20:46:41.253Z,5.84
2023-01-30T20:49:13.604Z,6.02
2023-01-30T20:51:42.726Z,5.86
2023-01-30T20:54:12.426Z,5.80
2023-01-30T20:56:42.792Z,5.84
2023-01-30T20:59:12.364Z,5.90
2023-01-30T21:01:40.669Z,5.96
2023-01-30T21:04:09.808Z,6.10
2023-01-30T21:06:44.197Z,6.06
2023-01-30T21:09:16.195Z,5.98
2023-01-30T21:11:44.414Z,5.92
2023-01-30T21:14:13.677Z,5.68
2023-01-30T21:16:41.343Z,5.68
2023-01-30T21:19:13.786Z,5.75
2023-01-30T21:21:44.614Z,5.70
2023-01-30T21:24:15.103Z,5.68
2023-01-30T21:26:46.225Z,5.72
2023-01-30T21:29:15.381Z,5.78
2023-01-30T21:31:44.742Z,5.60
2023-01-30T21:34:13.047Z,5.63
2023-01-30T21:36:41.328Z,5.80
2023-01-30T21:39:28.513Z,5.71
2023-01-30T21:42:14.726Z,5.77
2023-01-30T21:44:42.260Z,5.62
2023-01-30T21:47:09.750Z,5.43
2023-01-30T21:49:37.772Z,5.38
2023-01-30T21:52:05.651Z,5.43
2023-01-30T21:54:33.171Z,5.46
2023-01-30T21:57:02.409Z,5.73
2023-01-30T21:59:31.354Z,5.58
2023-01-30T22:01:58.831Z,5.47
2023-01-30T22:04:26.299Z,5.54
2023-01-30T22:06:54.360Z,5.53
2023-01-30T22:09:21.957Z,5.63
2023-01-30T22:11:49.535Z,5.46
2023-01-30T22:14:18.403Z,5.52
2023-01-30T22:16:46.015Z,5.44
2023-01-30T22:19:14.212Z,5.31
2023-01-30T22:21:41.730Z,5.30
2023-01-30T22:24:11.587Z,5.62
2023-01-30T22:26:39.699Z,5.81
2023-01-30T22:29:07.403Z,5.92
2023-01-30T22:31:40.299Z,5.89
2023-01-30T22:34:08.765Z,5.96
2023-01-30T22:36:37.156Z,6.02
2023-01-30T22:39:05.574Z,5.96
2023-01-30T22:41:36.236Z,5.90
2023-01-30T22:44:06.328Z,5.96
2023-01-30T22:46:37.577Z,5.79
2023-01-30T22:49:06.702Z,5.70
2023-01-30T22:51:36.201Z,5.78
2023-01-30T22:54:06.167Z,5.84
2023-01-30T22:56:37.065Z,5.65
2023-01-30T22:59:05.339Z,5.54
2023-01-30T23:01:34.787Z,5.45
2023-01-30T23:04:06.224Z,5.22
2023-01-30T23:06:34.370Z,5.51
2023-01-30T23:09:02.915Z,5.75
2023-01-30T23:11:32.948Z,5.76
2023-01-30T23:14:06.117Z,5.49
2023-01-30T23:16:36.081Z,5.56
2023-01-30T23:19:05.264Z,5.71
2023-01-30T23:21:35.850Z,5.87
2023-01-30T23:24:06.060Z,5.75
2023-01-30T23:26:35.729Z,5.60
2023-01-30T23:29:06.939Z,5.76
2023-01-30T23:31:35.468Z,5.65
2023-01-30T23:34:07.090Z,5.69
2023-01-30T23:36:35.384Z,5.67
2023-01-30T23:39:03.280Z,5.64
2023-01-30T23:41:32.755Z,5.60
2023-01-30T23:44:01.457Z,5.59
2023-01-30T23:46:30.809Z,5.55
2023-01-30T23:49:00.105Z,5.53
2023-01-30T23:51:30.882Z,5.65
2023-01-30T23:53:58.939Z,5.84
2023-01-30T23:56:29.084Z,5.75
2023-01-30T23:58:57.155Z,5.68
